createdAt,value
2022-09-12T00:01:19.774Z,1.45
2022-09-12T00:03:47.655Z,1.25
2022-09-12T00:06:31.185Z,1.45
2022-09-12T00:09:01.925Z,0.90
2022-09-12T00:11:29.771Z,1.10
2022-09-12T00:13:59.674Z,1.10
2022-09-12T00:16:29.696Z,1.48
2022-09-12T00:18:57.388Z,1.20
2022-09-12T00:21:25.459Z,1.50
2022-09-12T00:23:53.420Z,1.00
2022-09-12T00:26:22.267Z,1.17
2022-09-12T00:28:50.184Z,1.30
2022-09-12T00:31:20.814Z,0.93
2022-09-12T00:33:48.260Z,1.00
2022-09-12T00:36:21.972Z,1.20
2022-09-12T00:38:50.547Z,1.10
2022-09-12T00:41:21.440Z,1.15
2022-09-12T00:43:51.995Z,1.15
2022-09-12T00:46:28.318Z,1.10
2022-09-12T00:49:16.216Z,1.00
2022-09-12T00:51:50.770Z,1.10
2022-09-12T00:54:23.922Z,1.00
2022-09-12T00:56:56.141Z,1.27
2022-09-12T00:59:30.686Z,1.40
2022-09-12T01:01:58.317Z,0.77
2022-09-12T01:04:27.445Z,1.02
2022-09-12T01:06:58.214Z,1.33
2022-09-12T01:09:25.967Z,0.82
2022-09-12T01:11:54.082Z,0.90
2022-09-12T01:14:22.185Z,1.10
2022-09-12T01:16:51.268Z,1.63
2022-09-12T01:19:37.194Z,0.82
2022-09-12T01:22:26.210Z,1.45
2022-09-12T01:25:10.005Z,0.95
2022-09-12T01:27:57.465Z,1.20
2022-09-12T01:30:30.448Z,1.00
2022-09-12T01:33:03.470Z,1.20
2022-09-12T01:35:31.347Z,1.10
2022-09-12T01:38:14.168Z,0.95
2022-09-12T01:41:10.693Z,1.10
2022-09-12T01:43:55.058Z,1.67
2022-09-12T01:46:48.354Z,0.98
2022-09-12T01:49:27.260Z,1.20
2022-09-12T01:52:04.919Z,1.05
2022-09-12T01:54:54.322Z,1.10
2022-09-12T01:57:27.860Z,1.00
2022-09-12T02:00:00.883Z,1.00
2022-09-12T02:02:41.133Z,1.30
2022-09-12T02:05:32.596Z,1.30
2022-09-12T02:08:17.807Z,0.95
2022-09-12T02:11:08.927Z,0.90
2022-09-12T02:16:42.467Z,1.48
2022-09-12T02:19:16.145Z,0.90
2022-09-12T02:21:51.021Z,0.80
2022-09-12T02:24:20.021Z,0.75
2022-09-12T02:26:54.993Z,1.20
2022-09-12T02:29:22.583Z,0.98
2022-09-12T02:32:08.337Z,1.02
2022-09-12T02:34:59.123Z,0.80
2022-09-12T02:37:51.558Z,0.93
2022-09-12T02:40:19.380Z,0.90
2022-09-12T02:42:46.938Z,1.10
2022-09-12T02:45:14.566Z,0.90
2022-09-12T02:47:53.680Z,0.90
2022-09-12T02:50:21.237Z,0.80
2022-09-12T02:52:48.921Z,1.00
2022-09-12T02:55:17.555Z,0.82
2022-09-12T02:57:44.983Z,1.10
2022-09-12T03:00:13.045Z,1.63
2022-09-12T03:03:06.693Z,0.73
2022-09-12T03:05:37.135Z,0.77
2022-09-12T03:08:07.308Z,0.90
2022-09-12T03:11:02.753Z,0.90
2022-09-12T03:14:14.449Z,1.00
2022-09-12T03:17:10.335Z,0.98
2022-09-12T03:19:56.218Z,1.08
2022-09-12T03:22:38.229Z,0.85
2022-09-12T03:25:36.057Z,0.98
2022-09-12T03:28:08.359Z,1.05
2022-09-12T03:30:45.122Z,1.55
2022-09-12T03:33:18.313Z,0.93
2022-09-12T03:35:47.453Z,0.85
2022-09-12T03:38:15.175Z,1.00
2022-09-12T03:40:42.901Z,0.90
2022-09-12T03:43:10.887Z,1.08
2022-09-12T03:45:38.890Z,1.08
2022-09-12T03:48:07.205Z,0.90
2022-09-12T03:50:34.658Z,1.10
2022-09-12T03:53:03.694Z,1.10
2022-09-12T03:55:31.322Z,1.00
2022-09-12T03:57:58.766Z,0.90
2022-09-12T04:00:26.293Z,1.20
2022-09-12T04:02:56.183Z,1.10
2022-09-12T04:05:25.470Z,1.10
2022-09-12T04:07:53.150Z,0.95
2022-09-12T04:10:20.651Z,1.08
2022-09-12T04:12:48.071Z,1.00
2022-09-12T04:15:15.649Z,1.20
2022-09-12T04:17:43.101Z,1.50
2022-09-12T04:20:10.760Z,1.25
2022-09-12T04:22:38.144Z,1.17
2022-09-12T04:25:06.132Z,1.23
2022-09-12T04:27:33.997Z,1.40
2022-09-12T04:30:02.524Z,1.20
2022-09-12T04:32:31.335Z,1.17
2022-09-12T04:34:58.886Z,1.15
2022-09-12T04:37:26.360Z,2.88
2022-09-12T04:39:58.020Z,1.67
2022-09-12T04:42:25.701Z,1.10
2022-09-12T04:44:53.260Z,1.17
2022-09-12T04:47:20.797Z,1.30
2022-09-12T04:49:51.275Z,1.02
2022-09-12T04:52:18.691Z,1.33
2022-09-12T04:54:46.207Z,1.10
2022-09-12T04:57:13.597Z,0.82
2022-09-12T04:59:41.169Z,1.10
2022-09-12T05:02:08.669Z,1.45
2022-09-12T05:04:36.278Z,0.93
2022-09-12T05:07:03.742Z,1.15
2022-09-12T05:09:31.152Z,1.10
2022-09-12T05:12:04.268Z,1.30
2022-09-12T05:14:33.239Z,1.08
2022-09-12T05:17:01.988Z,1.20
2022-09-12T05:19:31.236Z,1.20
2022-09-12T05:21:59.730Z,1.00
2022-09-12T05:24:27.556Z,0.98
2022-09-12T05:26:55.098Z,1.20
2022-09-12T05:29:22.516Z,1.00
2022-09-12T05:31:52.343Z,1.40
2022-09-12T05:34:20.614Z,1.23
2022-09-12T05:36:48.422Z,1.10
2022-09-12T05:39:15.909Z,1.20
2022-09-12T05:41:43.350Z,1.13
2022-09-12T05:44:14.520Z,1.00
2022-09-12T05:46:44.506Z,1.23
2022-09-12T05:49:13.534Z,1.10
2022-09-12T05:51:43.929Z,1.10
2022-09-12T05:54:13.801Z,1.30
2022-09-12T05:56:42.874Z,1.15
2022-09-12T05:59:14.848Z,1.30
2022-09-12T06:01:42.996Z,1.55
2022-09-12T06:04:11.358Z,1.20
2022-09-12T06:06:45.356Z,1.20
2022-09-12T06:09:15.139Z,1.30
2022-09-12T06:11:43.053Z,1.00
2022-09-12T06:14:12.159Z,1.25
2022-09-12T06:16:40.287Z,1.40
2022-09-12T06:19:19.009Z,1.10
2022-09-12T06:21:49.298Z,1.20
2022-09-12T06:24:17.843Z,1.40
2022-09-12T06:26:45.749Z,1.25
2022-09-12T06:29:13.506Z,1.30
2022-09-12T06:31:42.914Z,1.25
2022-09-12T06:34:12.966Z,1.52
2022-09-12T06:36:43.285Z,1.20
2022-09-12T06:39:17.538Z,1.05
2022-09-12T06:41:45.557Z,2.17
2022-09-12T06:44:18.461Z,1.10
2022-09-12T06:46:46.271Z,1.10
2022-09-12T06:49:14.495Z,1.23
2022-09-12T06:51:45.087Z,1.10
2022-09-12T06:54:14.782Z,1.10
2022-09-12T06:56:42.438Z,1.33
2022-09-12T06:59:09.994Z,1.73
2022-09-12T07:01:37.554Z,2.17
2022-09-12T07:04:05.548Z,1.20
2022-09-12T07:06:38.953Z,1.45
2022-09-12T07:09:09.969Z,1.40
2022-09-12T07:14:07.187Z,1.35
2022-09-12T07:16:38.097Z,1.83
2022-09-12T07:19:07.369Z,1.40
2022-09-12T07:21:40.631Z,1.58
2022-09-12T07:24:10.387Z,1.90
2022-09-12T07:26:40.296Z,1.60
2022-09-12T07:29:35.366Z,1.30
2022-09-12T07:31:58.244Z,1.55
2022-09-12T07:34:25.614Z,1.73
2022-09-12T07:36:53.070Z,1.80
2022-09-12T07:39:20.448Z,1.45
2022-09-12T07:41:47.833Z,1.50
2022-09-12T07:44:15.234Z,1.45
2022-09-12T07:46:42.705Z,2.80
2022-09-12T07:49:12.534Z,1.20
2022-09-12T07:51:40.661Z,1.60
2022-09-12T07:54:09.460Z,2.17
2022-09-12T07:56:39.545Z,1.67
2022-09-12T07:59:10.494Z,1.58
2022-09-12T08:01:39.573Z,1.90
2022-09-12T08:04:07.518Z,1.73
2022-09-12T08:06:36.556Z,1.73
2022-09-12T08:09:05.232Z,1.70
2022-09-12T08:11:32.787Z,1.85
2022-09-12T08:14:01.948Z,1.83
2022-09-12T08:16:33.186Z,2.00
2022-09-12T08:19:02.488Z,2.03
2022-09-12T08:21:32.239Z,1.90
2022-09-12T08:24:02.134Z,1.90
2022-09-12T08:26:30.755Z,2.53
2022-09-12T08:28:58.766Z,2.10
2022-09-12T08:31:27.725Z,1.90
2022-09-12T08:34:00.988Z,1.80
2022-09-12T08:36:29.758Z,1.80
2022-09-12T08:39:02.533Z,2.05
2022-09-12T08:41:40.839Z,2.50
2022-09-12T08:44:45.602Z,1.90
2022-09-12T08:47:32.975Z,2.03
2022-09-12T08:50:03.188Z,1.85
2022-09-12T08:52:39.094Z,2.65
2022-09-12T08:55:25.712Z,3.10
2022-09-12T08:57:54.012Z,2.75
2022-09-12T09:00:21.843Z,3.30
2022-09-12T09:03:29.091Z,3.67
2022-09-12T09:06:18.437Z,3.45
2022-09-12T09:09:05.902Z,4.05
2022-09-12T09:11:56.838Z,3.58
2022-09-12T09:14:52.026Z,3.28
2022-09-12T09:17:43.628Z,5.43
2022-09-12T09:20:37.710Z,5.13
2022-09-12T09:23:26.135Z,6.20
2022-09-12T09:26:05.489Z,5.25
2022-09-12T09:28:54.361Z,6.68
2022-09-12T09:31:24.767Z,7.45
2022-09-12T09:33:55.559Z,5.85
2022-09-12T09:37:15.490Z,5.88
2022-09-12T09:39:59.644Z,6.55
2022-09-12T09:42:49.102Z,6.80
2022-09-12T09:45:24.292Z,6.47
2022-09-12T09:48:11.269Z,7.72
2022-09-12T09:50:49.133Z,8.65
2022-09-12T09:53:46.296Z,8.80
2022-09-12T09:56:34.069Z,7.40
2022-09-12T09:59:12.135Z,8.32
2022-09-12T10:01:55.068Z,8.85
2022-09-12T10:04:28.196Z,8.32
2022-09-12T10:07:01.553Z,10.20
2022-09-12T10:09:34.711Z,10.68
2022-09-12T10:12:25.007Z,8.48
2022-09-12T10:15:04.337Z,10.00
2022-09-12T10:17:40.510Z,10.05
2022-09-12T10:20:44.861Z,9.27
2022-09-12T10:23:24.147Z,9.05
2022-09-12T10:26:00.881Z,9.20
2022-09-12T10:28:40.236Z,7.65
2022-09-12T10:31:09.932Z,9.90
2022-09-12T10:33:53.969Z,8.70
2022-09-12T10:36:22.309Z,8.63
2022-09-12T10:38:53.112Z,10.25
2022-09-12T10:41:22.062Z,8.75
2022-09-12T10:43:50.023Z,8.85
2022-09-12T10:46:27.475Z,8.23
2022-09-12T10:49:23.069Z,9.40
2022-09-12T10:51:52.087Z,8.85
2022-09-12T10:54:23.894Z,7.18
2022-09-12T10:57:25.238Z,7.95
2022-09-12T11:00:11.240Z,7.80
2022-09-12T11:03:22.818Z,7.30
2022-09-12T11:05:58.758Z,9.98
2022-09-12T11:09:04.658Z,8.05
2022-09-12T11:12:10.547Z,8.48
2022-09-12T11:15:12.744Z,7.32
2022-09-12T11:17:58.862Z,8.20
2022-09-12T11:20:57.375Z,8.43
2022-09-12T11:23:52.594Z,8.15
2022-09-12T11:26:57.766Z,8.13
2022-09-12T11:29:58.481Z,7.82
2022-09-12T11:32:31.751Z,7.95
2022-09-12T11:35:31.350Z,8.23
2022-09-12T11:38:11.924Z,7.75
2022-09-12T11:40:56.669Z,9.07
2022-09-12T11:43:30.935Z,8.23
2022-09-12T11:46:07.170Z,7.38
2022-09-12T11:48:55.711Z,7.53
2022-09-12T11:51:48.402Z,8.23
2022-09-12T11:54:37.282Z,6.25
2022-09-12T11:57:30.964Z,6.45
2022-09-12T12:00:07.172Z,6.75
2022-09-12T12:02:56.088Z,7.10
2022-09-12T12:05:30.009Z,8.35
2022-09-12T12:08:00.480Z,7.90
2022-09-12T12:11:03.470Z,6.10
2022-09-12T12:13:50.017Z,6.78
2022-09-12T12:16:48.103Z,6.15
2022-09-12T12:19:15.440Z,7.10
2022-09-12T12:21:47.462Z,7.38
2022-09-12T12:24:23.913Z,6.57
2022-09-12T12:26:54.971Z,7.80
2022-09-12T12:29:23.567Z,6.35
2022-09-12T12:32:00.286Z,6.63
2022-09-12T12:34:32.606Z,6.63
2022-09-12T12:37:20.589Z,6.32
2022-09-12T12:39:51.367Z,6.35
2022-09-12T12:42:36.891Z,7.65
2022-09-12T12:45:26.787Z,6.32
2022-09-12T12:48:00.300Z,6.00
2022-09-12T12:50:30.247Z,5.88
2022-09-12T12:53:00.877Z,6.45
2022-09-12T12:55:44.016Z,5.60
2022-09-12T12:58:35.250Z,5.90
2022-09-12T13:01:18.026Z,6.00
2022-09-12T13:03:59.855Z,6.65
2022-09-12T13:06:37.792Z,6.72
2022-09-12T13:09:15.816Z,5.75
2022-09-12T13:11:43.332Z,5.60
2022-09-12T13:14:37.975Z,5.30
2022-09-12T13:17:08.019Z,5.28
2022-09-12T13:19:38.393Z,6.47
2022-09-12T13:22:10.260Z,5.13
2022-09-12T13:24:49.277Z,4.60
2022-09-12T13:27:25.637Z,6.03
2022-09-12T13:30:14.630Z,5.25
2022-09-12T13:32:43.916Z,5.15
2022-09-12T13:35:34.422Z,4.97
2022-09-12T13:38:38.489Z,5.00
2022-09-12T13:41:38.457Z,4.82
2022-09-12T13:44:11.282Z,5.25
2022-09-12T13:46:38.823Z,4.88
2022-09-12T13:49:19.209Z,5.00
2022-09-12T13:51:47.041Z,4.93
2022-09-12T13:54:23.867Z,5.00
2022-09-12T13:56:51.923Z,5.00
2022-09-12T13:59:19.443Z,5.13
2022-09-12T14:01:48.761Z,4.70
2022-09-12T14:04:42.034Z,4.63
2022-09-12T14:07:19.051Z,4.68
2022-09-12T14:09:54.725Z,5.13
2022-09-12T14:12:42.893Z,4.80
2022-09-12T14:15:20.058Z,4.20
2022-09-12T14:17:53.211Z,4.88
2022-09-12T14:20:23.428Z,4.75
2022-09-12T14:22:52.600Z,4.60
2022-09-12T14:25:25.658Z,4.32
2022-09-12T14:27:56.021Z,4.75
2022-09-12T14:30:37.592Z,4.53
2022-09-12T14:33:11.239Z,4.10
2022-09-12T14:35:43.488Z,4.32
2022-09-12T14:38:16.687Z,4.57
2022-09-12T14:40:54.068Z,4.50
2022-09-12T14:43:25.351Z,4.35
2022-09-12T14:45:56.473Z,4.15
2022-09-12T14:48:25.213Z,4.85
2022-09-12T14:50:54.312Z,4.20
2022-09-12T14:53:26.324Z,3.88
2022-09-12T14:56:09.148Z,4.40
2022-09-12T14:58:37.504Z,4.75
2022-09-12T15:01:08.174Z,4.32
2022-09-12T15:03:53.375Z,4.60
2022-09-12T15:06:32.561Z,4.65
2022-09-12T15:09:07.286Z,4.40
2022-09-12T15:11:34.737Z,4.57
2022-09-12T15:14:14.124Z,4.28
2022-09-12T15:16:42.363Z,4.28
2022-09-12T15:19:09.925Z,4.03
2022-09-12T15:21:37.887Z,4.45
2022-09-12T15:24:05.392Z,4.20
2022-09-12T15:26:33.013Z,4.45
2022-09-12T15:29:00.408Z,3.90
2022-09-12T15:31:29.117Z,4.00
2022-09-12T15:33:58.781Z,3.90
2022-09-12T15:36:27.245Z,4.07
2022-09-12T15:38:54.892Z,4.05
2022-09-12T15:41:24.095Z,4.30
2022-09-12T15:43:51.577Z,4.50
2022-09-12T15:46:19.619Z,3.97
2022-09-12T15:48:47.060Z,4.15
2022-09-12T15:51:22.308Z,3.83
2022-09-12T15:53:51.212Z,3.90
2022-09-12T15:56:21.325Z,4.15
2022-09-12T15:58:58.841Z,3.80
2022-09-12T16:01:28.734Z,4.90
2022-09-12T16:03:56.999Z,4.05
2022-09-12T16:06:24.856Z,3.88
2022-09-12T16:08:52.288Z,3.65
2022-09-12T16:11:23.876Z,3.85
2022-09-12T16:13:55.323Z,3.78
2022-09-12T16:16:23.285Z,3.80
2022-09-12T16:18:53.238Z,3.90
2022-09-12T16:21:21.393Z,3.88
2022-09-12T16:23:49.343Z,4.03
2022-09-12T16:26:17.497Z,4.05
2022-09-12T16:28:45.309Z,3.80
2022-09-12T16:31:14.482Z,5.45
2022-09-12T16:33:42.043Z,3.17
2022-09-12T16:36:12.894Z,3.60
2022-09-12T16:38:47.172Z,3.85
2022-09-12T16:41:16.041Z,3.47
2022-09-12T16:43:44.320Z,3.80
2022-09-12T16:46:16.059Z,3.80
2022-09-12T16:48:52.708Z,3.47
2022-09-12T16:51:23.852Z,4.35
2022-09-12T16:56:19.125Z,4.10
2022-09-12T16:58:47.593Z,3.97
2022-09-12T17:01:21.463Z,3.83
2022-09-12T17:03:54.894Z,4.50
2022-09-12T17:06:23.211Z,3.50
2022-09-12T17:08:54.049Z,3.72
2022-09-12T17:11:27.646Z,4.20
2022-09-12T17:14:06.908Z,3.60
2022-09-12T17:16:39.159Z,3.50
2022-09-12T17:19:07.451Z,3.10
2022-09-12T17:21:35.567Z,3.50
2022-09-12T17:24:04.001Z,3.40
2022-09-12T17:26:31.845Z,3.88
2022-09-12T17:29:00.290Z,3.45
2022-09-12T17:31:28.204Z,3.50
2022-09-12T17:33:59.887Z,3.40
2022-09-12T17:36:28.739Z,3.50
2022-09-12T17:38:56.765Z,3.63
2022-09-12T17:41:27.771Z,3.88
2022-09-12T17:43:57.386Z,3.30
2022-09-12T17:46:31.247Z,3.38
2022-09-12T17:49:00.524Z,3.58
2022-09-12T17:51:30.921Z,3.70
2022-09-12T17:54:08.517Z,3.83
2022-09-12T17:56:40.489Z,3.85
2022-09-12T17:59:10.931Z,3.20
2022-09-12T18:01:57.137Z,3.55
2022-09-12T18:04:24.660Z,3.70
2022-09-12T18:06:52.909Z,3.80
2022-09-12T18:09:22.852Z,3.58
2022-09-12T18:11:51.252Z,3.95
2022-09-12T18:14:19.190Z,3.50
2022-09-12T18:16:48.811Z,4.22
2022-09-12T18:19:16.861Z,4.68
2022-09-12T18:21:48.481Z,3.78
2022-09-12T18:24:17.247Z,3.50
2022-09-12T18:26:49.214Z,3.15
2022-09-12T18:29:17.559Z,3.13
2022-09-12T18:31:47.270Z,3.42
2022-09-12T18:34:19.054Z,3.95
2022-09-12T18:36:50.559Z,3.60
2022-09-12T18:39:18.621Z,3.28
2022-09-12T18:41:46.563Z,3.05
2022-09-12T18:44:14.468Z,3.60
2022-09-12T18:46:45.868Z,3.47
2022-09-12T18:49:14.461Z,3.47
2022-09-12T18:51:42.132Z,4.00
2022-09-12T18:54:15.529Z,3.80
2022-09-12T18:56:44.214Z,3.42
2022-09-12T18:59:16.459Z,3.40
2022-09-12T19:01:48.264Z,3.70
2022-09-12T19:04:21.089Z,3.35
2022-09-12T19:06:49.039Z,4.03
2022-09-12T19:09:21.959Z,3.45
2022-09-12T19:11:53.089Z,3.42
2022-09-12T19:14:25.034Z,2.88
2022-09-12T19:16:54.532Z,3.13
2022-09-12T19:19:26.257Z,3.28
2022-09-12T19:21:57.950Z,3.42
2022-09-12T19:24:27.664Z,3.63
2022-09-12T19:27:02.463Z,3.65
2022-09-12T19:29:30.782Z,3.10
2022-09-12T19:31:58.384Z,3.40
2022-09-12T19:34:28.552Z,3.70
2022-09-12T19:36:56.682Z,3.47
2022-09-12T19:39:32.382Z,4.78
2022-09-12T19:42:01.557Z,3.60
2022-09-12T19:44:33.198Z,3.30
2022-09-12T19:47:05.484Z,3.30
2022-09-12T19:49:34.462Z,3.42
2022-09-12T19:52:05.561Z,3.20
2022-09-12T19:54:33.757Z,3.40
2022-09-12T19:57:01.214Z,3.33
2022-09-12T19:59:28.818Z,3.45
2022-09-12T20:01:56.896Z,3.10
2022-09-12T20:04:24.700Z,3.20
2022-09-12T20:06:52.105Z,3.80
2022-09-12T20:09:19.503Z,3.17
2022-09-12T20:11:46.956Z,3.60
2022-09-12T20:14:14.809Z,3.25
2022-09-12T20:16:42.514Z,3.35
2022-09-12T20:19:10.277Z,3.83
2022-09-12T20:21:37.826Z,4.78
2022-09-12T20:24:08.184Z,3.42
2022-09-12T20:26:36.099Z,3.20
2022-09-12T20:29:05.505Z,3.00
2022-09-12T20:31:34.111Z,3.53
2022-09-12T20:34:01.622Z,3.28
2022-09-12T20:36:29.127Z,3.53
2022-09-12T20:39:00.286Z,3.35
2022-09-12T20:41:29.862Z,3.30
2022-09-12T20:43:58.159Z,3.10
2022-09-12T20:46:27.106Z,3.80
2022-09-12T20:48:55.306Z,3.30
2022-09-12T20:51:24.688Z,3.10
2022-09-12T20:53:59.421Z,3.33
2022-09-12T20:56:28.563Z,3.38
2022-09-12T20:58:56.800Z,3.38
2022-09-12T21:01:25.864Z,3.47
2022-09-12T21:03:53.800Z,3.28
2022-09-12T21:06:21.725Z,3.25
2022-09-12T21:08:49.861Z,3.45
2022-09-12T21:11:19.185Z,3.35
2022-09-12T21:13:46.903Z,3.10
2022-09-12T21:16:21.529Z,3.10
2022-09-12T21:18:55.247Z,3.47
2022-09-12T21:21:23.406Z,3.28
2022-09-12T21:23:55.493Z,3.22
2022-09-12T21:26:22.983Z,2.78
2022-09-12T21:28:50.385Z,3.22
2022-09-12T21:31:17.917Z,3.00
2022-09-12T21:33:45.366Z,2.65
2022-09-12T21:36:12.945Z,3.25
2022-09-12T21:38:40.700Z,2.92
2022-09-12T21:41:13.881Z,3.00
2022-09-12T21:43:42.082Z,3.25
2022-09-12T21:46:10.170Z,3.00
2022-09-12T21:48:37.829Z,3.20
2022-09-12T21:51:05.921Z,3.30
2022-09-12T21:53:33.332Z,2.85
2022-09-12T21:56:02.577Z,3.40
2022-09-12T21:58:30.422Z,2.65
2022-09-12T22:00:58.018Z,2.80
2022-09-12T22:03:26.209Z,3.25
2022-09-12T22:06:04.944Z,3.00
2022-09-12T22:08:33.901Z,3.10
2022-09-12T22:11:03.574Z,3.00
2022-09-12T22:13:32.350Z,2.53
2022-09-12T22:16:03.594Z,3.25
2022-09-12T22:18:35.870Z,3.10
2022-09-12T22:21:08.215Z,2.88
2022-09-12T22:23:54.473Z,2.90
2022-09-12T22:26:22.144Z,2.78
2022-09-12T22:28:50.659Z,2.85
2022-09-12T22:31:18.588Z,2.92
2022-09-12T22:33:46.338Z,3.30
2022-09-12T22:36:14.143Z,2.83
2022-09-12T22:38:41.606Z,2.40
2022-09-12T22:41:11.309Z,2.75
2022-09-12T22:43:38.765Z,3.00
2022-09-12T22:46:11.045Z,2.60
2022-09-12T22:48:39.206Z,2.97
2022-09-12T22:51:06.806Z,2.95
2022-09-12T22:53:35.300Z,2.70
2022-09-12T22:56:04.085Z,3.10
2022-09-12T22:58:32.422Z,3.00
2022-09-12T23:00:59.927Z,3.00
2022-09-12T23:03:27.497Z,3.10
2022-09-12T23:05:55.045Z,3.00
2022-09-12T23:08:22.429Z,3.13
2022-09-12T23:10:49.856Z,3.00
2022-09-12T23:13:17.221Z,3.10
2022-09-12T23:15:44.661Z,2.80
2022-09-12T23:18:12.047Z,3.40
2022-09-12T23:20:39.420Z,3.28
2022-09-12T23:23:06.826Z,3.40
2022-09-12T23:25:34.606Z,3.40
2022-09-12T23:28:02.168Z,3.50
2022-09-12T23:30:29.592Z,3.50
2022-09-12T23:32:56.998Z,3.08
2022-09-12T23:35:24.468Z,3.00
2022-09-12T23:37:51.846Z,2.90
2022-09-12T23:40:19.339Z,3.42
2022-09-12T23:42:46.774Z,3.08
2022-09-12T23:45:14.271Z,3.00
2022-09-12T23:47:41.682Z,3.13
2022-09-12T23:50:09.303Z,2.90
2022-09-12T23:52:37.199Z,3.22
2022-09-12T23:55:04.945Z,3.13
2022-09-12T23:57:32.319Z,3.00
2022-09-12T23:59:59.688Z,3.10
